sensor_id;sensor_type;location;lat;lon;timestamp;pressure;altitude;pressure_sealevel;temperature;humidity
17615;BME280;8926;49.720;6.576;2023-04-15T00:01:11;98779.72;;;9.10;64.10
17615;BME280;8926;49.720;6.576;2023-04-15T00:03:37;98781.38;;;9.11;64.53
17615;BME280;8926;49.720;6.576;2023-04-15T00:06:02;98782.88;;;9.15;63.95
17615;BME280;8926;49.720;6.576;2023-04-15T00:08:28;98777.66;;;9.15;63.15
17615;BME280;8926;49.720;6.576;2023-04-15T00:10:54;98780.34;;;9.13;63.57
17615;BME280;8926;49.720;6.576;2023-04-15T00:13:19;98798.09;;;9.21;61.62
17615;BME280;8926;49.720;6.576;2023-04-15T00:15:44;98808.59;;;9.07;62.38
17615;BME280;8926;49.720;6.576;2023-04-15T00:18:10;98800.09;;;8.91;63.00
17615;BME280;8926;49.720;6.576;2023-04-15T00:20:35;98795.09;;;8.88;65.07
17615;BME280;8926;49.720;6.576;2023-04-15T00:23:01;98797.31;;;8.94;64.00
17615;BME280;8926;49.720;6.576;2023-04-15T00:25:28;98790.22;;;8.96;65.07
17615;BME280;8926;49.720;6.576;2023-04-15T00:27:53;98792.63;;;8.99;64.52
17615;BME280;8926;49.720;6.576;2023-04-15T00:30:19;98799.53;;;9.00;64.67
17615;BME280;8926;49.720;6.576;2023-04-15T00:32:47;98792.63;;;8.99;64.44
17615;BME280;8926;49.720;6.576;2023-04-15T00:35:13;98780.53;;;8.98;64.73
17615;BME280;8926;49.720;6.576;2023-04-15T00:37:38;98787.53;;;8.97;64.75
17615;BME280;8926;49.720;6.576;2023-04-15T00:40:05;98790.97;;;8.98;63.97
17615;BME280;8926;49.720;6.576;2023-04-15T00:42:33;98782.63;;;8.93;64.50
17615;BME280;8926;49.720;6.576;2023-04-15T00:44:58;98777.41;;;8.93;63.50
17615;BME280;8926;49.720;6.576;2023-04-15T00:47:24;98776.13;;;8.85;64.99
17615;BME280;8926;49.720;6.576;2023-04-15T00:49:51;98771.66;;;8.88;65.07
17615;BME280;8926;49.720;6.576;2023-04-15T00:52:17;98783.84;;;8.87;64.37
17615;BME280;8926;49.720;6.576;2023-04-15T00:54:42;98775.28;;;8.85;64.16
17615;BME280;8926;49.720;6.576;2023-04-15T00:57:07;98778.00;;;8.83;65.44
17615;BME280;8926;49.720;6.576;2023-04-15T00:59:33;98786.44;;;8.87;64.37
17615;BME280;8926;49.720;6.576;2023-04-15T01:01:59;98784.69;;;8.88;65.38
17615;BME280;8926;49.720;6.576;2023-04-15T01:04:25;98783.44;;;8.93;64.87
17615;BME280;8926;49.720;6.576;2023-04-15T01:06:50;98784.09;;;8.97;64.84
17615;BME280;8926;49.720;6.576;2023-04-15T01:09:16;98784.81;;;8.99;65.25
17615;BME280;8926;49.720;6.576;2023-04-15T01:11:41;98779.81;;;8.96;64.82
17615;BME280;8926;49.720;6.576;2023-04-15T01:14:08;98772.84;;;8.96;64.51
17615;BME280;8926;49.720;6.576;2023-04-15T01:16:35;98768.66;;;8.94;64.67
17615;BME280;8926;49.720;6.576;2023-04-15T01:19:01;98766.44;;;8.88;65.24
17615;BME280;8926;49.720;6.576;2023-04-15T01:21:26;98761.97;;;8.90;65.54
17615;BME280;8926;49.720;6.576;2023-04-15T01:23:52;98760.31;;;8.89;66.24
17615;BME280;8926;49.720;6.576;2023-04-15T01:26:19;98758.63;;;8.88;65.25
17615;BME280;8926;49.720;6.576;2023-04-15T01:28:46;98764.69;;;8.88;65.02
17615;BME280;8926;49.720;6.576;2023-04-15T01:31:13;98762.81;;;8.90;66.00
17615;BME280;8926;49.720;6.576;2023-04-15T01:33:40;98768.84;;;8.91;65.23
17615;BME280;8926;49.720;6.576;2023-04-15T01:36:07;98763.09;;;8.85;65.52
17615;BME280;8926;49.720;6.576;2023-04-15T01:38:34;98768.41;;;8.84;65.41
17615;BME280;8926;49.720;6.576;2023-04-15T01:41:00;98764.47;;;8.78;65.99
17615;BME280;8926;49.720;6.576;2023-04-15T01:43:26;98767.81;;;8.80;65.87
17615;BME280;8926;49.720;6.576;2023-04-15T01:45:52;98762.59;;;8.80;65.48
17615;BME280;8926;49.720;6.576;2023-04-15T01:48:17;98762.59;;;8.80;65.29
17615;BME280;8926;49.720;6.576;2023-04-15T01:50:43;98767.16;;;8.77;65.37
17615;BME280;8926;49.720;6.576;2023-04-15T01:53:09;98760.00;;;8.80;65.84
17615;BME280;8926;49.720;6.576;2023-04-15T01:55:35;98750.72;;;8.76;65.72
17615;BME280;8926;49.720;6.576;2023-04-15T01:58:01;98757.59;;;8.77;66.11
17615;BME280;8926;49.720;6.576;2023-04-15T02:00:26;98759.06;;;8.81;65.17
17615;BME280;8926;49.720;6.576;2023-04-15T02:02:53;98764.25;;;8.81;66.85
17615;BME280;8926;49.720;6.576;2023-04-15T02:05:18;98754.25;;;8.75;65.88
17615;BME280;8926;49.720;6.576;2023-04-15T02:07:44;98757.97;;;8.71;66.55
17615;BME280;8926;49.720;6.576;2023-04-15T02:10:10;98757.13;;;8.71;66.63
17615;BME280;8926;49.720;6.576;2023-04-15T02:12:37;98759.66;;;8.72;66.08
17615;BME280;8926;49.720;6.576;2023-04-15T02:15:03;98763.00;;;8.74;65.22
17615;BME280;8926;49.720;6.576;2023-04-15T02:17:28;98750.91;;;8.73;65.64
17615;BME280;8926;49.720;6.576;2023-04-15T02:19:55;98761.72;;;8.67;66.06
17615;BME280;8926;49.720;6.576;2023-04-15T02:22:21;98760.31;;;8.62;66.60
17615;BME280;8926;49.720;6.576;2023-04-15T02:24:46;98757.09;;;8.58;66.84
17615;BME280;8926;49.720;6.576;2023-04-15T02:27:15;98750.44;;;8.54;66.36
17615;BME280;8926;49.720;6.576;2023-04-15T02:29:42;98755.84;;;8.51;67.56
17615;BME280;8926;49.720;6.576;2023-04-15T02:32:08;98755.44;;;8.57;66.95
17615;BME280;8926;49.720;6.576;2023-04-15T02:34:33;98756.38;;;8.56;67.04
17615;BME280;8926;49.720;6.576;2023-04-15T02:36:58;98764.69;;;8.61;67.14
17615;BME280;8926;49.720;6.576;2023-04-15T02:39:24;98760.97;;;8.65;65.78
17615;BME280;8926;49.720;6.576;2023-04-15T02:41:49;98755.56;;;8.68;66.45
17615;BME280;8926;49.720;6.576;2023-04-15T02:44:17;98757.53;;;8.65;66.09
17615;BME280;8926;49.720;6.576;2023-04-15T02:46:45;98747.63;;;8.57;65.03
17615;BME280;8926;49.720;6.576;2023-04-15T02:49:14;98745.06;;;8.43;65.36
17615;BME280;8926;49.720;6.576;2023-04-15T02:51:40;98751.59;;;8.36;67.55
17615;BME280;8926;49.720;6.576;2023-04-15T02:54:06;98749.91;;;8.35;66.27
17615;BME280;8926;49.720;6.576;2023-04-15T02:56:32;98752.16;;;8.27;68.00
17615;BME280;8926;49.720;6.576;2023-04-15T02:58:57;98746.75;;;8.30;67.09
17615;BME280;8926;49.720;6.576;2023-04-15T03:01:22;98749.66;;;8.25;68.41
17615;BME280;8926;49.720;6.576;2023-04-15T03:03:48;98748.16;;;8.21;68.31
17615;BME280;8926;49.720;6.576;2023-04-15T03:06:13;98761.09;;;8.23;68.16
17615;BME280;8926;49.720;6.576;2023-04-15T03:08:38;98756.63;;;8.25;66.74
17615;BME280;8926;49.720;6.576;2023-04-15T03:11:03;98760.91;;;8.26;67.29
17615;BME280;8926;49.720;6.576;2023-04-15T03:13:29;98760.72;;;8.29;68.54
17615;BME280;8926;49.720;6.576;2023-04-15T03:15:55;98757.16;;;8.30;67.35
17615;BME280;8926;49.720;6.576;2023-04-15T03:18:20;98758.84;;;8.31;66.98
17615;BME280;8926;49.720;6.576;2023-04-15T03:20:46;98764.03;;;8.31;67.80
17615;BME280;8926;49.720;6.576;2023-04-15T03:23:11;98771.13;;;8.29;67.57
17615;BME280;8926;49.720;6.576;2023-04-15T03:25:36;98772.22;;;8.25;68.45
17615;BME280;8926;49.720;6.576;2023-04-15T03:28:02;98775.56;;;8.27;68.58
17615;BME280;8926;49.720;6.576;2023-04-15T03:30:27;98767.38;;;8.33;68.49
17615;BME280;8926;49.720;6.576;2023-04-15T03:32:53;98772.22;;;8.39;68.22
17615;BME280;8926;49.720;6.576;2023-04-15T03:35:18;98777.22;;;8.42;67.11
17615;BME280;8926;49.720;6.576;2023-04-15T03:37:43;98774.81;;;8.39;67.99
17615;BME280;8926;49.720;6.576;2023-04-15T03:40:09;98773.44;;;8.33;69.06
17615;BME280;8926;49.720;6.576;2023-04-15T03:42:35;98783.00;;;8.33;68.55
17615;BME280;8926;49.720;6.576;2023-04-15T03:45:00;98773.50;;;8.32;68.12
17615;BME280;8926;49.720;6.576;2023-04-15T03:47:25;98778.00;;;8.30;67.95
17615;BME280;8926;49.720;6.576;2023-04-15T03:49:51;98775.38;;;8.30;67.54
17615;BME280;8926;49.720;6.576;2023-04-15T03:52:16;98773.72;;;8.29;67.78
17615;BME280;8926;49.720;6.576;2023-04-15T03:54:41;98778.38;;;8.24;67.65
17615;BME280;8926;49.720;6.576;2023-04-15T03:57:06;98763.50;;;8.11;68.02
17615;BME280;8926;49.720;6.576;2023-04-15T03:59:32;98771.22;;;8.13;68.16
17615;BME280;8926;49.720;6.576;2023-04-15T04:01:57;98782.91;;;8.20;67.51
17615;BME280;8926;49.720;6.576;2023-04-15T04:04:22;98780.59;;;8.15;68.81
17615;BME280;8926;49.720;6.576;2023-04-15T04:06:47;98775.41;;;8.15;67.84
17615;BME280;8926;49.720;6.576;2023-04-15T04:09:13;98778.94;;;8.14;67.48
17615;BME280;8926;49.720;6.576;2023-04-15T04:11:38;98781.34;;;8.17;67.03
17615;BME280;8926;49.720;6.576;2023-04-15T04:14:03;98773.34;;;8.06;67.24
17615;BME280;8926;49.720;6.576;2023-04-15T04:16:29;98784.16;;;8.00;67.99
17615;BME280;8926;49.720;6.576;2023-04-15T04:18:54;98778.41;;;7.95;67.59
17615;BME280;8926;49.720;6.576;2023-04-15T04:21:19;98782.78;;;7.95;67.90
17615;BME280;8926;49.720;6.576;2023-04-15T04:23:45;98787.88;;;7.96;68.28
17615;BME280;8926;49.720;6.576;2023-04-15T04:26:11;98789.56;;;7.97;68.92
17615;BME280;8926;49.720;6.576;2023-04-15T04:28:36;98793.81;;;7.98;68.11
17615;BME280;8926;49.720;6.576;2023-04-15T04:31:03;98802.38;;;8.00;67.63
17615;BME280;8926;49.720;6.576;2023-04-15T04:33:28;98802.66;;;7.96;68.45
17615;BME280;8926;49.720;6.576;2023-04-15T04:35:54;98807.94;;;7.94;67.92
17615;BME280;8926;49.720;6.576;2023-04-15T04:38:19;98807.94;;;7.94;68.55
17615;BME280;8926;49.720;6.576;2023-04-15T04:40:45;98800.31;;;7.91;67.78
17615;BME280;8926;49.720;6.576;2023-04-15T04:43:10;98806.44;;;7.90;68.11
17615;BME280;8926;49.720;6.576;2023-04-15T04:45:36;98806.44;;;7.90;67.30
17615;BME280;8926;49.720;6.576;2023-04-15T04:48:02;98811.84;;;7.87;67.89
17615;BME280;8926;49.720;6.576;2023-04-15T04:50:31;98817.88;;;7.88;68.15
17615;BME280;8926;49.720;6.576;2023-04-15T04:52:56;98824.75;;;7.89;67.26
17615;BME280;8926;49.720;6.576;2023-04-15T04:55:21;98819.28;;;7.93;66.85
17615;BME280;8926;49.720;6.576;2023-04-15T04:57:47;98825.56;;;7.89;66.95
17615;BME280;8926;49.720;6.576;2023-04-15T05:00:12;98824.84;;;7.87;68.02
17615;BME280;8926;49.720;6.576;2023-04-15T05:02:38;98827.91;;;7.94;67.74
17615;BME280;8926;49.720;6.576;2023-04-15T05:05:03;98832.09;;;7.96;68.28
17615;BME280;8926;49.720;6.576;2023-04-15T05:07:29;98826.53;;;8.02;67.98
17615;BME280;8926;49.720;6.576;2023-04-15T05:09:54;98828.81;;;8.07;68.00
17615;BME280;8926;49.720;6.576;2023-04-15T05:12:20;98826.13;;;8.08;67.67
17615;BME280;8926;49.720;6.576;2023-04-15T05:14:45;98831.13;;;8.11;66.84
17615;BME280;8926;49.720;6.576;2023-04-15T05:17:10;98833.94;;;8.08;67.27
17615;BME280;8926;49.720;6.576;2023-04-15T05:19:36;98840.72;;;8.11;67.15
17615;BME280;8926;49.720;6.576;2023-04-15T05:22:01;98837.84;;;8.15;66.65
17615;BME280;8926;49.720;6.576;2023-04-15T05:24:27;98836.81;;;8.18;67.14
17615;BME280;8926;49.720;6.576;2023-04-15T05:26:52;98836.00;;;8.73;65.62
17615;BME280;8926;49.720;6.576;2023-04-15T05:29:18;98842.50;;;9.19;64.20
17615;BME280;8926;49.720;6.576;2023-04-15T05:31:43;98837.03;;;9.10;64.80
17615;BME280;8926;49.720;6.576;2023-04-15T05:34:08;98843.25;;;8.95;64.05
17615;BME280;8926;49.720;6.576;2023-04-15T05:36:35;98849.28;;;8.82;64.74
17615;BME280;8926;49.720;6.576;2023-04-15T05:39:01;98845.28;;;8.77;64.75
17615;BME280;8926;49.720;6.576;2023-04-15T05:41:26;98847.97;;;8.75;64.80
17615;BME280;8926;49.720;6.576;2023-04-15T05:43:51;98847.16;;;8.75;64.40
17615;BME280;8926;49.720;6.576;2023-04-15T05:46:17;98849.41;;;8.67;65.04
17615;BME280;8926;49.720;6.576;2023-04-15T05:48:42;98857.31;;;8.65;65.43
17615;BME280;8926;49.720;6.576;2023-04-15T05:51:08;98845.47;;;8.74;64.31
17615;BME280;8926;49.720;6.576;2023-04-15T05:53:33;98851.13;;;8.80;64.54
17615;BME280;8926;49.720;6.576;2023-04-15T05:55:58;98848.84;;;8.89;63.92
17615;BME280;8926;49.720;6.576;2023-04-15T05:58:24;98854.50;;;8.95;64.17
17615;BME280;8926;49.720;6.576;2023-04-15T06:00:49;98861.41;;;8.96;64.26
17615;BME280;8926;49.720;6.576;2023-04-15T06:03:15;98856.66;;;9.15;65.43
17615;BME280;8926;49.720;6.576;2023-04-15T06:05:40;98866.94;;;9.31;65.32
17615;BME280;8926;49.720;6.576;2023-04-15T06:08:06;98864.84;;;9.36;63.96
17615;BME280;8926;49.720;6.576;2023-04-15T06:10:34;98867.91;;;9.56;63.94
17615;BME280;8926;49.720;6.576;2023-04-15T06:13:03;98875.53;;;9.71;63.38
17615;BME280;8926;49.720;6.576;2023-04-15T06:15:29;98870.34;;;9.84;62.89
17615;BME280;8926;49.720;6.576;2023-04-15T06:17:55;98867.81;;;9.95;61.78
17615;BME280;8926;49.720;6.576;2023-04-15T06:20:20;98868.97;;;10.04;61.71
17615;BME280;8926;49.720;6.576;2023-04-15T06:22:45;98874.31;;;10.02;60.82
17615;BME280;8926;49.720;6.576;2023-04-15T06:25:10;98869.59;;;10.07;60.87
17615;BME280;8926;49.720;6.576;2023-04-15T06:27:36;98871.78;;;10.01;61.06
17615;BME280;8926;49.720;6.576;2023-04-15T06:30:02;98883.88;;;10.14;60.82
17615;BME280;8926;49.720;6.576;2023-04-15T06:32:27;98876.56;;;10.45;60.50
17615;BME280;8926;49.720;6.576;2023-04-15T06:34:52;98877.94;;;10.87;58.88
17615;BME280;8926;49.720;6.576;2023-04-15T06:37:18;98880.41;;;11.36;58.47
17615;BME280;8926;49.720;6.576;2023-04-15T06:39:43;98874.09;;;11.74;56.92
17615;BME280;8926;49.720;6.576;2023-04-15T06:42:09;98876.09;;;11.94;57.14
17615;BME280;8926;49.720;6.576;2023-04-15T06:44:35;98878.00;;;12.14;56.02
17615;BME280;8926;49.720;6.576;2023-04-15T06:47:01;98868.50;;;12.47;55.21
17615;BME280;8926;49.720;6.576;2023-04-15T06:49:26;98877.03;;;12.71;54.96
17615;BME280;8926;49.720;6.576;2023-04-15T06:51:52;98881.03;;;12.86;53.09
17615;BME280;8926;49.720;6.576;2023-04-15T06:54:17;98878.41;;;12.98;52.74
17615;BME280;8926;49.720;6.576;2023-04-15T06:56:42;98887.19;;;13.19;51.58
17615;BME280;8926;49.720;6.576;2023-04-15T06:59:08;98887.94;;;12.87;51.94
17615;BME280;8926;49.720;6.576;2023-04-15T07:01:33;98890.72;;;12.64;53.07
17615;BME280;8926;49.720;6.576;2023-04-15T07:03:59;98893.25;;;12.43;53.17
17615;BME280;8926;49.720;6.576;2023-04-15T07:06:24;98905.97;;;12.36;53.41
17615;BME280;8926;49.720;6.576;2023-04-15T07:08:50;98899.66;;;12.28;53.44
17615;BME280;8926;49.720;6.576;2023-04-15T07:11:15;98901.09;;;12.32;54.70
17615;BME280;8926;49.720;6.576;2023-04-15T07:13:41;98903.34;;;12.14;53.51
17615;BME280;8926;49.720;6.576;2023-04-15T07:16:06;98907.03;;;12.22;54.01
17615;BME280;8926;49.720;6.576;2023-04-15T07:18:33;98902.41;;;12.26;53.32
17615;BME280;8926;49.720;6.576;2023-04-15T07:20:58;98903.47;;;12.35;53.83
17615;BME280;8926;49.720;6.576;2023-04-15T07:23:23;98902.38;;;12.48;53.63
17615;BME280;8926;49.720;6.576;2023-04-15T07:25:49;98894.91;;;12.66;52.73
17615;BME280;8926;49.720;6.576;2023-04-15T07:28:14;98900.84;;;12.57;52.09
17615;BME280;8926;49.720;6.576;2023-04-15T07:30:40;98894.66;;;12.69;52.44
17615;BME280;8926;49.720;6.576;2023-04-15T07:33:05;98899.38;;;12.98;51.52
17615;BME280;8926;49.720;6.576;2023-04-15T07:35:31;98894.94;;;13.20;51.60
17615;BME280;8926;49.720;6.576;2023-04-15T07:37:57;98899.25;;;13.42;50.83
17615;BME280;8926;49.720;6.576;2023-04-15T07:40:22;98897.22;;;13.67;51.07
17615;BME280;8926;49.720;6.576;2023-04-15T07:42:48;98913.34;;;13.83;49.17
17615;BME280;8926;49.720;6.576;2023-04-15T07:45:14;98916.88;;;14.14;48.98
17615;BME280;8926;49.720;6.576;2023-04-15T07:47:40;98910.28;;;14.19;48.54
17615;BME280;8926;49.720;6.576;2023-04-15T07:50:08;98909.09;;;14.33;47.63
17615;BME280;8926;49.720;6.576;2023-04-15T07:52:34;98899.16;;;14.67;47.81
17615;BME280;8926;49.720;6.576;2023-04-15T07:55:05;98907.53;;;14.91;46.74
17615;BME280;8926;49.720;6.576;2023-04-15T07:57:31;98907.31;;;15.23;46.17
17615;BME280;8926;49.720;6.576;2023-04-15T07:59:56;98905.78;;;15.40;46.21
17615;BME280;8926;49.720;6.576;2023-04-15T08:02:21;98904.84;;;15.51;44.98
17615;BME280;8926;49.720;6.576;2023-04-15T08:04:47;98906.50;;;15.71;45.77
17615;BME280;8926;49.720;6.576;2023-04-15T08:07:12;98914.25;;;15.92;44.84
17615;BME280;8926;49.720;6.576;2023-04-15T08:09:38;98915.00;;;16.21;45.45
17615;BME280;8926;49.720;6.576;2023-04-15T08:12:03;98908.75;;;16.22;43.53
17615;BME280;8926;49.720;6.576;2023-04-15T08:14:29;98909.38;;;16.44;43.38
17615;BME280;8926;49.720;6.576;2023-04-15T08:16:54;98911.00;;;16.64;43.05
17615;BME280;8926;49.720;6.576;2023-04-15T08:19:19;98913.34;;;16.94;42.36
17615;BME280;8926;49.720;6.576;2023-04-15T08:21:45;98899.28;;;17.21;43.21
17615;BME280;8926;49.720;6.576;2023-04-15T08:24:10;98901.00;;;17.48;41.91
17615;BME280;8926;49.720;6.576;2023-04-15T08:26:37;98904.72;;;17.73;40.06
17615;BME280;8926;49.720;6.576;2023-04-15T08:29:02;98901.13;;;18.00;39.83
17615;BME280;8926;49.720;6.576;2023-04-15T08:31:28;98896.97;;;18.23;40.12
17615;BME280;8926;49.720;6.576;2023-04-15T08:33:56;98903.50;;;18.37;39.05
17615;BME280;8926;49.720;6.576;2023-04-15T08:36:21;98906.31;;;18.61;39.80
17615;BME280;8926;49.720;6.576;2023-04-15T08:38:47;98900.63;;;18.90;38.76
17615;BME280;8926;49.720;6.576;2023-04-15T08:41:21;98904.69;;;19.19;37.16
17615;BME280;8926;49.720;6.576;2023-04-15T08:44:00;98900.41;;;19.42;37.30
17615;BME280;8926;49.720;6.576;2023-04-15T08:46:26;98903.13;;;19.67;37.07
17615;BME280;8926;49.720;6.576;2023-04-15T08:48:55;98899.78;;;19.81;36.49
17615;BME280;8926;49.720;6.576;2023-04-15T08:51:21;98912.03;;;19.82;36.67
17615;BME280;8926;49.720;6.576;2023-04-15T08:53:46;98910.38;;;19.81;36.83
17615;BME280;8926;49.720;6.576;2023-04-15T08:56:13;98910.72;;;19.78;36.78
17615;BME280;8926;49.720;6.576;2023-04-15T08:58:40;98914.38;;;19.77;37.29
17615;BME280;8926;49.720;6.576;2023-04-15T09:01:05;98912.06;;;19.65;37.90
17615;BME280;8926;49.720;6.576;2023-04-15T09:03:31;98912.06;;;19.65;36.33
17615;BME280;8926;49.720;6.576;2023-04-15T09:05:58;98908.06;;;19.61;37.15
17615;BME280;8926;49.720;6.576;2023-04-15T09:08:23;98906.09;;;19.72;37.54
17615;BME280;8926;49.720;6.576;2023-04-15T09:10:48;98915.66;;;19.48;37.76
17615;BME280;8926;49.720;6.576;2023-04-15T09:13:14;98914.97;;;19.22;36.53
17615;BME280;8926;49.720;6.576;2023-04-15T09:15:39;98926.88;;;19.34;38.78
17615;BME280;8926;49.720;6.576;2023-04-15T09:18:05;98920.09;;;19.31;36.83
17615;BME280;8926;49.720;6.576;2023-04-15T09:20:40;98920.31;;;19.54;37.64
17615;BME280;8926;49.720;6.576;2023-04-15T09:23:12;98922.97;;;19.79;35.80
17615;BME280;8926;49.720;6.576;2023-04-15T09:25:39;98928.25;;;20.11;37.08
17615;BME280;8926;49.720;6.576;2023-04-15T09:28:06;98932.56;;;20.45;36.36
17615;BME280;8926;49.720;6.576;2023-04-15T09:30:32;98928.50;;;20.73;35.97
17615;BME280;8926;49.720;6.576;2023-04-15T09:32:59;98925.75;;;20.89;34.95
17615;BME280;8926;49.720;6.576;2023-04-15T09:35:27;98931.03;;;20.97;34.24
17615;BME280;8926;49.720;6.576;2023-04-15T09:38:01;98928.31;;;21.06;32.32
17615;BME280;8926;49.720;6.576;2023-04-15T09:40:31;98930.25;;;21.20;31.86
17615;BME280;8926;49.720;6.576;2023-04-15T09:42:58;98934.91;;;21.26;32.43
17615;BME280;8926;49.720;6.576;2023-04-15T09:45:23;98940.31;;;21.32;30.95
17615;BME280;8926;49.720;6.576;2023-04-15T09:47:49;98934.84;;;21.34;33.12
17615;BME280;8926;49.720;6.576;2023-04-15T09:50:18;98932.44;;;21.47;30.02
17615;BME280;8926;49.720;6.576;2023-04-15T09:52:44;98933.63;;;21.67;31.12
17615;BME280;8926;49.720;6.576;2023-04-15T09:55:11;98934.94;;;21.72;31.24
17615;BME280;8926;49.720;6.576;2023-04-15T09:57:37;98942.78;;;21.65;29.83
17615;BME280;8926;49.720;6.576;2023-04-15T10:00:04;98931.97;;;21.66;30.10
17615;BME280;8926;49.720;6.576;2023-04-15T10:02:30;98931.78;;;21.68;28.94
17615;BME280;8926;49.720;6.576;2023-04-15T10:04:56;98939.28;;;21.87;30.15
17615;BME280;8926;49.720;6.576;2023-04-15T10:07:22;98936.03;;;22.00;29.96
17615;BME280;8926;49.720;6.576;2023-04-15T10:09:48;98946.25;;;22.11;30.00
17615;BME280;8926;49.720;6.576;2023-04-15T10:12:16;98939.47;;;22.09;29.69
17615;BME280;8926;49.720;6.576;2023-04-15T10:14:42;98942.09;;;22.31;29.78
17615;BME280;8926;49.720;6.576;2023-04-15T10:17:11;98947.16;;;22.56;29.60
17615;BME280;8926;49.720;6.576;2023-04-15T10:19:37;98947.91;;;22.12;29.10
17615;BME280;8926;49.720;6.576;2023-04-15T10:22:02;98953.28;;;21.58;30.09
17615;BME280;8926;49.720;6.576;2023-04-15T10:24:30;98959.38;;;21.05;30.07
17615;BME280;8926;49.720;6.576;2023-04-15T10:29:27;98962.06;;;20.42;32.05
17615;BME280;8926;49.720;6.576;2023-04-15T10:31:58;98965.03;;;20.30;31.34
17615;BME280;8926;49.720;6.576;2023-04-15T10:34:24;98962.41;;;20.06;31.53
17615;BME280;8926;49.720;6.576;2023-04-15T10:36:50;98956.94;;;19.59;31.60
17615;BME280;8926;49.720;6.576;2023-04-15T10:42:14;98973.69;;;19.25;33.09
17615;BME280;8926;49.720;6.576;2023-04-15T10:44:59;98980.19;;;19.31;32.58
17615;BME280;8926;49.720;6.576;2023-04-15T10:47:24;98986.75;;;19.11;33.00
17615;BME280;8926;49.720;6.576;2023-04-15T10:49:51;98992.59;;;18.88;33.01
17615;BME280;8926;49.720;6.576;2023-04-15T10:52:23;98990.22;;;18.77;33.72
17615;BME280;8926;49.720;6.576;2023-04-15T10:54:49;98990.88;;;19.13;32.79
17615;BME280;8926;49.720;6.576;2023-04-15T10:57:20;98977.00;;;19.70;31.37
17615;BME280;8926;49.720;6.576;2023-04-15T11:02:43;98972.97;;;20.71;31.01
17615;BME280;8926;49.720;6.576;2023-04-15T11:05:10;98979.84;;;20.96;29.37
17615;BME280;8926;49.720;6.576;2023-04-15T11:07:38;98975.41;;;21.28;30.34
17615;BME280;8926;49.720;6.576;2023-04-15T11:12:39;98985.91;;;20.74;30.34
17615;BME280;8926;49.720;6.576;2023-04-15T11:17:55;99000.19;;;20.65;29.95
17615;BME280;8926;49.720;6.576;2023-04-15T11:20:21;98999.41;;;21.04;29.82
17615;BME280;8926;49.720;6.576;2023-04-15T11:22:50;98995.13;;;21.33;29.18
17615;BME280;8926;49.720;6.576;2023-04-15T11:25:27;98994.13;;;21.65;29.01
17615;BME280;8926;49.720;6.576;2023-04-15T11:27:53;98997.19;;;21.54;29.17
17615;BME280;8926;49.720;6.576;2023-04-15T11:30:21;99014.03;;;20.99;28.78
17615;BME280;8926;49.720;6.576;2023-04-15T11:32:48;99006.47;;;20.72;29.62
17615;BME280;8926;49.720;6.576;2023-04-15T11:35:13;99014.16;;;20.26;30.24
17615;BME280;8926;49.720;6.576;2023-04-15T11:37:40;99015.09;;;20.58;30.01
17615;BME280;8926;49.720;6.576;2023-04-15T11:40:12;99019.41;;;20.67;29.22
17615;BME280;8926;49.720;6.576;2023-04-15T11:42:39;99014.44;;;20.64;30.07
17615;BME280;8926;49.720;6.576;2023-04-15T11:45:12;99032.03;;;20.57;29.54
17615;BME280;8926;49.720;6.576;2023-04-15T11:47:39;99031.97;;;20.81;28.75
17615;BME280;8926;49.720;6.576;2023-04-15T11:50:17;99036.09;;;21.00;29.13
17615;BME280;8926;49.720;6.576;2023-04-15T11:52:59;99023.59;;;21.09;28.59
17615;BME280;8926;49.720;6.576;2023-04-15T11:55:26;99026.56;;;21.14;29.37
17615;BME280;8926;49.720;6.576;2023-04-15T11:58:21;99042.13;;;20.78;30.21
17615;BME280;8926;49.720;6.576;2023-04-15T12:00:52;99043.00;;;20.46;29.80
17615;BME280;8926;49.720;6.576;2023-04-15T12:03:28;99054.88;;;20.01;29.46
17615;BME280;8926;49.720;6.576;2023-04-15T12:06:14;99059.22;;;20.10;30.26
17615;BME280;8926;49.720;6.576;2023-04-15T12:11:18;99060.53;;;19.98;28.58
17615;BME280;8926;49.720;6.576;2023-04-15T12:13:47;99081.75;;;19.98;27.53
17615;BME280;8926;49.720;6.576;2023-04-15T12:16:17;99086.88;;;20.08;26.93
17615;BME280;8926;49.720;6.576;2023-04-15T12:18:50;99082.44;;;20.24;27.46
17615;BME280;8926;49.720;6.576;2023-04-15T12:21:20;99089.41;;;20.25;27.85
17615;BME280;8926;49.720;6.576;2023-04-15T12:23:50;99085.22;;;20.07;27.22
17615;BME280;8926;49.720;6.576;2023-04-15T12:26:16;99100.25;;;19.82;26.97
17615;BME280;8926;49.720;6.576;2023-04-15T12:28:42;99107.22;;;19.75;27.52
17615;BME280;8926;49.720;6.576;2023-04-15T12:31:09;99103.06;;;19.80;27.47
17615;BME280;8926;49.720;6.576;2023-04-15T12:33:34;99117.31;;;19.71;28.26
17615;BME280;8926;49.720;6.576;2023-04-15T12:36:00;99122.59;;;19.71;28.34
17615;BME280;8926;49.720;6.576;2023-04-15T12:38:25;99122.91;;;19.68;28.57
17615;BME280;8926;49.720;6.576;2023-04-15T12:40:51;99125.72;;;19.67;27.00
17615;BME280;8926;49.720;6.576;2023-04-15T12:43:16;99139.78;;;19.59;26.38
17615;BME280;8926;49.720;6.576;2023-04-15T12:45:41;99137.44;;;19.56;27.30
17615;BME280;8926;49.720;6.576;2023-04-15T12:48:07;99139.81;;;19.41;28.55
17615;BME280;8926;49.720;6.576;2023-04-15T12:50:34;99152.34;;;19.31;28.03
17615;BME280;8926;49.720;6.576;2023-04-15T12:52:59;99142.78;;;19.38;29.04
17615;BME280;8926;49.720;6.576;2023-04-15T12:55:24;99150.69;;;19.30;28.70
17615;BME280;8926;49.720;6.576;2023-04-15T12:57:50;99164.81;;;19.13;28.47
17615;BME280;8926;49.720;6.576;2023-04-15T13:00:15;99168.16;;;19.15;29.14
17615;BME280;8926;49.720;6.576;2023-04-15T13:02:43;99167.19;;;19.24;28.60
17615;BME280;8926;49.720;6.576;2023-04-15T13:05:08;99169.50;;;19.19;28.71
17615;BME280;8926;49.720;6.576;2023-04-15T13:07:33;99172.28;;;18.91;28.45
17615;BME280;8926;49.720;6.576;2023-04-15T13:09:59;99186.47;;;18.64;28.87
17615;BME280;8926;49.720;6.576;2023-04-15T13:12:26;99188.31;;;18.54;30.07
17615;BME280;8926;49.720;6.576;2023-04-15T13:14:54;99193.16;;;18.59;30.31
17615;BME280;8926;49.720;6.576;2023-04-15T13:17:19;99194.97;;;18.41;29.73
17615;BME280;8926;49.720;6.576;2023-04-15T13:19:46;99201.44;;;18.28;30.04
17615;BME280;8926;49.720;6.576;2023-04-15T13:22:11;99192.06;;;18.16;30.54
17615;BME280;8926;49.720;6.576;2023-04-15T13:24:39;99190.88;;;18.28;30.68
17615;BME280;8926;49.720;6.576;2023-04-15T13:27:17;99203.63;;;18.15;29.43
17615;BME280;8926;49.720;6.576;2023-04-15T13:29:42;99197.94;;;18.10;29.80